CheckWX is a tool to help pilots better visualize weather data.  It is not intended as a substitute for an official pre-flight weather briefing.

23:41:27 UTC

KHOP METAR
Campbell AAF (Fort Campbell) Airport
Fort Campbell/Hopkinsville, Kentucky, USA
Current

45 mins ago

KHOP 182256Z AUTO 09003KT 10SM CLR 18/03 A2993 RMK AO2 SLP138 T01840027 $
Observed
Oct-18 @ 22:56 UTC
Wind
  • 090° at 3 KTS
Visibility
10 SM
Flight Rules
VFR
Cloud Levels
  • Clear skies
Temperature
18°C / 64°F
Dewpoint
C / 37°F
Humidity
37%
Altimeter
29.93" Hg
Pressure
1013.52 hPa
Previous

2 hours ago

KHOP 182156Z AUTO 12006KT 10SM CLR 20/02 A2993 RMK AO2 SLP137 T01980022 $
Observed
Oct-18 @ 21:56 UTC
Wind
  • 120° at 6 KTS
Visibility
10 SM
Flight Rules
VFR
Cloud Levels
  • Clear skies
Temperature
20°C / 68°F
Dewpoint
C / 36°F
Humidity
30%
Altimeter
29.93" Hg
Pressure
1013.52 hPa
Previous

3 hours ago

KHOP 182056Z AUTO 09007KT 10SM CLR 20/02 A2996 RMK AO2 SLP147 T02010020 $
Observed
Oct-18 @ 20:56 UTC
Wind
  • 090° at 7 KTS
Visibility
10 SM
Flight Rules
VFR
Cloud Levels
  • Clear skies
Temperature
20°C / 68°F
Dewpoint
C / 36°F
Humidity
30%
Altimeter
29.96" Hg
Pressure
1014.52 hPa